Time;durP1;ratioP1;P1;durP2;ratioP2;P2;SDS_P1;SDS_P2;PMS_P1;PMS_P2;Temp;Humidity;BMP_temperature;BMP_pressure;BME280_temperature;BME280_humidity;BME280_pressure;Samples;Min_cycle;Max_cycle;Signal;HPM_P1;HPM_P2
2021/10/19 00:00:55;;;;;;;;;25.67;25.33;;;;;;;;5115035;28;8787;-76
2021/10/19 00:03:20;;;;;;;;;17.00;16.75;;;;;;;;5115114;28;8736;-76
2021/10/19 00:05:46;;;;;;;;;19.67;19.67;;;;;;;;5114956;28;9558;-78
2021/10/19 00:08:12;;;;;;;;;21.33;21.33;;;;;;;;5114846;28;8807;-78
2021/10/19 00:10:37;;;;;;;;;20.33;20.33;;;;;;;;5114923;28;8895;-76
2021/10/19 00:13:03;;;;;;;;;20.33;20.33;;;;;;;;5114495;28;8830;-76
2021/10/19 00:15:28;;;;;;;;;21.00;19.67;;;;;;;;5118814;27;9012;-79
2021/10/19 00:17:53;;;;;;;;;22.00;20.67;;;;;;;;5119746;27;8802;-79
2021/10/19 00:20:18;;;;;;;;;19.67;19.67;;;;;;;;5119752;27;8784;-76
2021/10/19 00:22:44;;;;;;;;;19.67;19.67;;;;;;;;5119705;27;8833;-76
2021/10/19 00:25:15;;;;;;;;;19.00;19.00;;;;;;;;5119619;27;8787;-75
2021/10/19 00:27:41;;;;;;;;;25.00;23.75;;;;;;;;5119737;27;8743;-76
2021/10/19 00:30:10;;;;;;;;;19.00;19.00;;;;;;;;5111116;28;8817;-76
2021/10/19 00:32:37;;;;;;;;;21.00;19.00;;;;;;;;5099004;28;8816;-76
2021/10/19 00:35:03;;;;;;;;;19.50;19.00;;;;;;;;5097582;28;8718;-76
2021/10/19 00:37:29;;;;;;;;;22.25;21.25;;;;;;;;5097503;28;9564;-76
2021/10/19 00:39:54;;;;;;;;;19.67;17.33;;;;;;;;5099081;28;8900;-76
2021/10/19 00:42:19;;;;;;;;;23.00;21.00;;;;;;;;5099032;28;8828;-76
2021/10/19 00:44:45;;;;;;;;;20.67;19.67;;;;;;;;5097518;28;8810;-76
2021/10/19 00:47:12;;;;;;;;;23.00;20.75;;;;;;;;5097525;28;8825;-76
2021/10/19 00:49:37;;;;;;;;;20.00;19.50;;;;;;;;5098601;28;8821;-78
2021/10/19 00:52:03;;;;;;;;;19.33;19.33;;;;;;;;5098303;28;8750;-79
2021/10/19 00:54:28;;;;;;;;;19.67;18.67;;;;;;;;5097221;28;9583;-79
2021/10/19 00:56:54;;;;;;;;;20.33;20.33;;;;;;;;5097328;28;8801;-79
2021/10/19 00:59:19;;;;;;;;;22.33;21.00;;;;;;;;5096963;28;8794;-79
2021/10/19 01:01:45;;;;;;;;;23.33;20.67;;;;;;;;5098547;28;8789;-77
2021/10/19 01:04:10;;;;;;;;;22.00;21.00;;;;;;;;5098692;28;8919;-77
2021/10/19 01:06:35;;;;;;;;;24.00;22.00;;;;;;;;5098526;28;8785;-76
2021/10/19 01:09:01;;;;;;;;;19.33;19.33;;;;;;;;5098498;28;8798;-76
2021/10/19 01:11:26;;;;;;;;;23.33;21.00;;;;;;;;5098592;28;8809;-76
2021/10/19 01:13:51;;;;;;;;;19.00;17.33;;;;;;;;5096669;28;8904;-76
2021/10/19 01:16:16;;;;;;;;;19.67;18.00;;;;;;;;5098542;28;9655;-76
2021/10/19 01:18:43;;;;;;;;;20.67;20.67;;;;;;;;5098428;28;8870;-77
2021/10/19 01:21:09;;;;;;;;;24.00;22.75;;;;;;;;5096813;28;8821;-76
2021/10/19 01:23:34;;;;;;;;;20.33;20.33;;;;;;;;5096996;28;8797;-76
2021/10/19 01:26:03;;;;;;;;;17.67;17.33;;;;;;;;5097926;28;8907;-76
2021/10/19 01:28:28;;;;;;;;;23.25;21.75;;;;;;;;5098039;28;9912;-77
2021/10/19 01:30:55;;;;;;;;;22.00;20.33;;;;;;;;5111580;28;8894;-76
2021/10/19 01:33:21;;;;;;;;;18.25;18.25;;;;;;;;5117184;28;8807;-79
2021/10/19 01:35:46;;;;;;;;;19.00;19.00;;;;;;;;5116868;28;9540;-79
2021/10/19 01:38:17;;;;;;;;;18.67;18.00;;;;;;;;5118347;27;8797;-79
2021/10/19 01:40:43;;;;;;;;;22.50;22.50;;;;;;;;5118427;27;8759;-79
2021/10/19 01:43:12;;;;;;;;;19.50;19.50;;;;;;;;5118004;27;8791;-79
2021/10/19 01:45:37;;;;;;;;;18.25;18.00;;;;;;;;5118380;27;8880;-77
2021/10/19 01:48:03;;;;;;;;;19.00;17.33;;;;;;;;5118473;27;8817;-76
2021/10/19 01:50:28;;;;;;;;;22.33;21.00;;;;;;;;5117881;27;8803;-76
2021/10/19 01:52:53;;;;;;;;;20.33;19.00;;;;;;;;5116739;28;8819;-79
2021/10/19 01:55:18;;;;;;;;;21.00;20.00;;;;;;;;5118052;27;8900;-79
2021/10/19 01:57:43;;;;;;;;;21.00;20.33;;;;;;;;5116580;28;8841;-79
2021/10/19 02:00:11;;;;;;;;;19.67;19.67;;;;;;;;5118101;27;8787;-78
2021/10/19 02:02:37;;;;;;;;;21.75;20.75;;;;;;;;5118128;27;8767;-78
2021/10/19 02:05:03;;;;;;;;;18.50;18.50;;;;;;;;5116696;28;8824;-79
2021/10/19 02:07:28;;;;;;;;;18.67;18.67;;;;;;;;5117893;27;8779;-76
2021/10/19 02:09:53;;;;;;;;;22.00;22.00;;;;;;;;5118007;27;8775;-76
2021/10/19 02:12:19;;;;;;;;;20.00;19.00;;;;;;;;5117934;27;8837;-76
2021/10/19 02:14:44;;;;;;;;;23.33;22.00;;;;;;;;5116268;28;8872;-76
2021/10/19 02:17:09;;;;;;;;;19.67;19.67;;;;;;;;5117923;27;8783;-76
2021/10/19 02:19:34;;;;;;;;;21.00;18.67;;;;;;;;5116301;28;9320;-76
2021/10/19 02:21:59;;;;;;;;;21.00;21.00;;;;;;;;5117707;27;8795;-77
2021/10/19 02:24:25;;;;;;;;;18.67;18.33;;;;;;;;5117852;27;8802;-77
2021/10/19 02:26:50;;;;;;;;;23.00;21.67;;;;;;;;5117720;27;8871;-76
2021/10/19 02:29:16;;;;;;;;;20.67;18.67;;;;;;;;5117543;27;8770;-76
2021/10/19 02:31:41;;;;;;;;;21.00;21.00;;;;;;;;5095894;28;8750;-76
2021/10/19 02:34:07;;;;;;;;;19.67;19.00;;;;;;;;5095542;28;9570;-76
2021/10/19 02:36:33;;;;;;;;;19.67;18.67;;;;;;;;5096276;28;8798;-76
2021/10/19 02:39:02;;;;;;;;;21.67;21.67;;;;;;;;5097038;28;8778;-76
2021/10/19 02:41:28;;;;;;;;;20.50;20.25;;;;;;;;5095678;28;11514;-76
2021/10/19 02:43:54;;;;;;;;;22.33;21.00;;;;;;;;5095241;28;8805;-79
2021/10/19 02:46:20;;;;;;;;;20.67;19.00;;;;;;;;5096868;28;11455;-79
2021/10/19 02:48:46;;;;;;;;;21.50;20.50;;;;;;;;5095404;28;8866;-78
2021/10/19 02:51:13;;;;;;;;;20.00;20.00;;;;;;;;5095377;28;8809;-78
2021/10/19 02:53:38;;;;;;;;;18.25;16.50;;;;;;;;5095185;28;8814;-79
2021/10/19 02:56:04;;;;;;;;;19.00;19.00;;;;;;;;5095426;28;8941;-79
2021/10/19 02:58:29;;;;;;;;;22.67;22.67;;;;;;;;5096669;28;8975;-76
2021/10/19 03:00:57;;;;;;;;;24.00;23.33;;;;;;;;5095379;28;8798;-76
2021/10/19 03:03:22;;;;;;;;;19.75;19.75;;;;;;;;5096871;28;8758;-76
2021/10/19 03:05:47;;;;;;;;;23.67;20.33;;;;;;;;5096701;28;8786;-76
2021/10/19 03:08:12;;;;;;;;;22.67;21.33;;;;;;;;5096563;28;8793;-76
2021/10/19 03:10:38;;;;;;;;;22.33;20.67;;;;;;;;5095385;28;8860;-76
2021/10/19 03:13:06;;;;;;;;;18.67;18.67;;;;;;;;5096489;28;8810;-76
2021/10/19 03:15:31;;;;;;;;;16.50;15.50;;;;;;;;5096356;28;8786;-79
2021/10/19 03:17:56;;;;;;;;;20.33;16.67;;;;;;;;5095152;28;8790;-79
2021/10/19 03:20:22;;;;;;;;;22.00;20.67;;;;;;;;5096502;28;8777;-79
2021/10/19 03:22:47;;;;;;;;;22.33;22.33;;;;;;;;5095097;28;8844;-79
2021/10/19 03:25:12;;;;;;;;;24.00;20.00;;;;;;;;5096399;28;8786;-79
2021/10/19 03:27:39;;;;;;;;;21.50;21.50;;;;;;;;5096230;28;8887;-77
2021/10/19 03:30:05;;;;;;;;;21.33;20.67;;;;;;;;5102981;28;8835;-76
2021/10/19 03:32:30;;;;;;;;;20.25;17.75;;;;;;;;5116735;27;8814;-76
2021/10/19 03:34:56;;;;;;;;;19.33;18.33;;;;;;;;5115452;28;8799;-75
2021/10/19 03:37:21;;;;;;;;;22.67;22.67;;;;;;;;5116753;27;8876;-79
2021/10/19 03:39:46;;;;;;;;;23.00;20.67;;;;;;;;5116667;27;8803;-78
2021/10/19 03:42:11;;;;;;;;;20.00;20.00;;;;;;;;5116863;27;8791;-76
2021/10/19 03:44:36;;;;;;;;;19.33;19.33;;;;;;;;5115188;28;8842;-76
2021/10/19 03:47:02;;;;;;;;;20.00;17.00;;;;;;;;5116830;27;8834;-76
2021/10/19 03:49:27;;;;;;;;;21.00;19.00;;;;;;;;5119419;27;8790;-77
2021/10/19 03:51:52;;;;;;;;;22.00;22.00;;;;;;;;5118584;28;8831;-76
2021/10/19 03:54:17;;;;;;;;;20.67;20.00;;;;;;;;5120319;27;8898;-76
2021/10/19 03:56:43;;;;;;;;;16.33;16.33;;;;;;;;5120129;27;8833;-76
2021/10/19 03:59:08;;;;;;;;;21.00;21.00;;;;;;;;5118417;28;8818;-79
2021/10/19 04:01:34;;;;;;;;;20.33;20.33;;;;;;;;5118591;28;8913;-79
2021/10/19 04:04:02;;;;;;;;;22.33;21.33;;;;;;;;5118354;28;8799;-79
2021/10/19 04:06:28;;;;;;;;;15.50;15.50;;;;;;;;5118405;28;8806;-79
2021/10/19 04:08:54;;;;;;;;;20.67;20.67;;;;;;;;5118313;28;8803;-79
2021/10/19 04:11:20;;;;;;;;;19.33;19.33;;;;;;;;5118341;28;11706;-76
2021/10/19 04:13:48;;;;;;;;;21.00;20.00;;;;;;;;5118166;28;8815;-77
2021/10/19 04:16:13;;;;;;;;;22.00;21.75;;;;;;;;5118119;28;9781;-76
2021/10/19 04:18:39;;;;;;;;;20.00;19.67;;;;;;;;5118320;28;8845;-76
2021/10/19 04:21:05;;;;;;;;;21.33;20.67;;;;;;;;5118360;28;8835;-76
2021/10/19 04:23:30;;;;;;;;;19.67;19.67;;;;;;;;5118241;28;8807;-76
2021/10/19 04:25:58;;;;;;;;;22.00;21.67;;;;;;;;5118287;28;8859;-76
2021/10/19 04:28:24;;;;;;;;;20.00;20.00;;;;;;;;5118005;28;8743;-76
2021/10/19 04:30:51;;;;;;;;;23.33;20.33;;;;;;;;5105149;28;9756;-76
2021/10/19 04:33:16;;;;;;;;;22.00;22.00;;;;;;;;5097546;28;8816;-76
2021/10/19 04:35:42;;;;;;;;;22.00;22.00;;;;;;;;5097564;28;8825;-77
2021/10/19 04:38:10;;;;;;;;;19.67;17.67;;;;;;;;5097444;28;8809;-79
2021/10/19 04:40:36;;;;;;;;;19.75;19.50;;;;;;;;5097579;28;8786;-79
2021/10/19 04:43:01;;;;;;;;;20.67;20.67;;;;;;;;5097360;28;8824;-78
2021/10/19 04:45:28;;;;;;;;;19.33;18.00;;;;;;;;5097430;28;8827;-79
2021/10/19 04:47:54;;;;;;;;;19.50;19.00;;;;;;;;5097273;28;8867;-79
2021/10/19 04:50:19;;;;;;;;;19.25;18.50;;;;;;;;5097419;28;8794;-77
2021/10/19 04:52:45;;;;;;;;;23.67;23.67;;;;;;;;5097018;28;8818;-76
2021/10/19 04:55:10;;;;;;;;;23.33;21.67;;;;;;;;5097340;28;8894;-76
2021/10/19 04:57:36;;;;;;;;;18.00;18.00;;;;;;;;5097118;28;8853;-76
2021/10/19 05:00:01;;;;;;;;;17.67;17.67;;;;;;;;5097952;28;8819;-76
2021/10/19 05:02:27;;;;;;;;;24.00;21.67;;;;;;;;5097217;28;8839;-76
2021/10/19 05:04:53;;;;;;;;;24.00;22.50;;;;;;;;5097158;28;8798;-76
2021/10/19 05:07:18;;;;;;;;;20.00;19.67;;;;;;;;5097040;28;8798;-77
2021/10/19 05:09:44;;;;;;;;;23.67;21.00;;;;;;;;5097101;28;8833;-77
2021/10/19 05:12:09;;;;;;;;;17.00;17.00;;;;;;;;5096940;28;8801;-76
2021/10/19 05:14:35;;;;;;;;;20.00;20.00;;;;;;;;5097856;28;8805;-75
2021/10/19 05:17:00;;;;;;;;;20.00;19.67;;;;;;;;5098489;28;8864;-79
2021/10/19 05:19:26;;;;;;;;;27.00;26.00;;;;;;;;5096901;28;8908;-79
2021/10/19 05:21:51;;;;;;;;;20.67;19.33;;;;;;;;5096814;28;9595;-79
2021/10/19 05:24:17;;;;;;;;;17.00;17.00;;;;;;;;5096875;28;8856;-80
2021/10/19 05:26:42;;;;;;;;;24.33;22.67;;;;;;;;5096797;28;8813;-79
2021/10/19 05:29:08;;;;;;;;;17.33;17.33;;;;;;;;5096416;28;8857;-80
2021/10/19 05:31:33;;;;;;;;;23.33;22.67;;;;;;;;5115521;28;8826;-76
2021/10/19 05:33:59;;;;;;;;;22.67;22.00;;;;;;;;5117160;28;8884;-76
2021/10/19 05:36:24;;;;;;;;;25.67;21.33;;;;;;;;5118420;27;8829;-77
2021/10/19 05:38:50;;;;;;;;;21.33;21.00;;;;;;;;5117164;28;8838;-77
2021/10/19 05:41:16;;;;;;;;;24.00;23.00;;;;;;;;5117044;28;9664;-77
2021/10/19 05:43:42;;;;;;;;;20.25;20.25;;;;;;;;5116994;28;8821;-77
2021/10/19 05:46:07;;;;;;;;;15.67;15.67;;;;;;;;5116883;28;8807;-77
2021/10/19 05:48:33;;;;;;;;;23.00;22.00;;;;;;;;5116839;28;10934;-76
2021/10/19 05:50:58;;;;;;;;;19.00;18.00;;;;;;;;5118225;27;8818;-77
2021/10/19 05:53:24;;;;;;;;;24.33;21.33;;;;;;;;5116779;28;8807;-77
2021/10/19 05:55:49;;;;;;;;;21.33;20.33;;;;;;;;5116750;28;8806;-77
2021/10/19 05:58:15;;;;;;;;;19.67;19.67;;;;;;;;5118045;27;8828;-77
2021/10/19 06:00:40;;;;;;;;;23.00;21.00;;;;;;;;5118292;27;8815;-78
2021/10/19 06:03:05;;;;;;;;;21.67;18.67;;;;;;;;5116742;28;8854;-76
2021/10/19 06:05:31;;;;;;;;;21.67;21.00;;;;;;;;5116666;28;8837;-76
2021/10/19 06:07:56;;;;;;;;;19.33;17.67;;;;;;;;5118643;27;8911;-79
2021/10/19 06:10:21;;;;;;;;;22.33;22.33;;;;;;;;5118275;27;8813;-79
2021/10/19 06:12:50;;;;;;;;;22.33;22.00;;;;;;;;5115345;28;8835;-79
2021/10/19 06:15:16;;;;;;;;;21.50;19.25;;;;;;;;5117854;27;8803;-80
2021/10/19 06:17:41;;;;;;;;;22.75;22.75;;;;;;;;5116582;28;8876;-80
2021/10/19 06:20:07;;;;;;;;;22.00;22.00;;;;;;;;5116007;28;8818;-80
2021/10/19 06:22:32;;;;;;;;;22.33;21.00;;;;;;;;5111635;28;8861;-78
2021/10/19 06:24:57;;;;;;;;;21.33;21.33;;;;;;;;5117794;28;8811;-77
2021/10/19 06:27:22;;;;;;;;;22.00;21.33;;;;;;;;5117664;28;8813;-78
2021/10/19 06:29:47;;;;;;;;;21.00;20.00;;;;;;;;5117462;27;8846;-78
2021/10/19 06:32:13;;;;;;;;;23.00;20.33;;;;;;;;5121387;27;8799;-76
2021/10/19 06:34:38;;;;;;;;;19.00;19.00;;;;;;;;5120181;28;8822;-76
2021/10/19 06:37:03;;;;;;;;;22.67;20.00;;;;;;;;5121110;27;8775;-76
2021/10/19 06:39:28;;;;;;;;;22.00;20.00;;;;;;;;5121358;27;8879;-76
2021/10/19 06:41:53;;;;;;;;;20.33;18.33;;;;;;;;5122540;28;8799;-76
2021/10/19 06:44:20;;;;;;;;;20.00;19.00;;;;;;;;5122866;28;8803;-76
2021/10/19 06:46:45;;;;;;;;;19.00;18.25;;;;;;;;5121688;28;8728;-76
2021/10/19 06:49:12;;;;;;;;;19.00;18.00;;;;;;;;5122440;27;9523;-77
2021/10/19 06:51:37;;;;;;;;;22.25;19.50;;;;;;;;5122410;27;8736;-76
2021/10/19 06:54:02;;;;;;;;;21.00;18.67;;;;;;;;5120709;28;8839;-76
2021/10/19 06:56:27;;;;;;;;;21.00;19.67;;;;;;;;5123306;27;8824;-76
2021/10/19 06:58:52;;;;;;;;;23.67;22.00;;;;;;;;5120763;28;8838;-76
2021/10/19 07:01:19;;;;;;;;;18.50;18.50;;;;;;;;5123619;27;9615;-76
2021/10/19 07:03:45;;;;;;;;;18.75;18.75;;;;;;;;5121072;27;8783;-76
2021/10/19 07:06:11;;;;;;;;;17.33;17.33;;;;;;;;5121006;27;10031;-76
2021/10/19 07:08:37;;;;;;;;;17.75;16.75;;;;;;;;5120749;27;8728;-75
2021/10/19 07:11:02;;;;;;;;;23.00;21.33;;;;;;;;5122787;27;8810;-76
2021/10/19 07:13:27;;;;;;;;;19.67;19.67;;;;;;;;5125638;27;8856;-76
2021/10/19 07:15:54;;;;;;;;;17.33;16.67;;;;;;;;5120815;28;9559;-77
2021/10/19 07:18:20;;;;;;;;;18.75;18.75;;;;;;;;5123042;27;8798;-76
2021/10/19 07:20:45;;;;;;;;;18.67;17.00;;;;;;;;5122198;28;8787;-76
2021/10/19 07:23:10;;;;;;;;;20.00;19.33;;;;;;;;5122902;27;8842;-77
2021/10/19 07:25:35;;;;;;;;;20.00;20.00;;;;;;;;5119023;28;8806;-76
2021/10/19 07:28:00;;;;;;;;;24.00;23.67;;;;;;;;5121278;27;8779;-76
2021/10/19 07:30:26;;;;;;;;;20.33;20.33;;;;;;;;5110672;27;8862;-76
2021/10/19 07:32:52;;;;;;;;;19.33;19.00;;;;;;;;5101818;28;8825;-76
2021/10/19 07:35:18;;;;;;;;;21.75;21.00;;;;;;;;5100100;28;8927;-76
2021/10/19 07:37:44;;;;;;;;;21.25;21.25;;;;;;;;5099986;28;8722;-76
2021/10/19 07:40:09;;;;;;;;;21.00;20.00;;;;;;;;5099388;28;8872;-76
2021/10/19 07:42:35;;;;;;;;;24.00;23.67;;;;;;;;5099377;28;8845;-75
2021/10/19 07:45:01;;;;;;;;;19.67;19.33;;;;;;;;5099535;28;9514;-76
2021/10/19 07:47:27;;;;;;;;;22.00;22.00;;;;;;;;5098715;28;9728;-76
2021/10/19 07:49:52;;;;;;;;;21.33;19.33;;;;;;;;5099866;28;8790;-76
2021/10/19 07:52:17;;;;;;;;;20.00;20.00;;;;;;;;5099359;28;8817;-76
2021/10/19 07:54:43;;;;;;;;;21.00;20.00;;;;;;;;5101406;28;8798;-76
2021/10/19 07:57:08;;;;;;;;;18.67;18.67;;;;;;;;5101463;28;8828;-76
2021/10/19 07:59:33;;;;;;;;;20.67;20.67;;;;;;;;5099602;28;8829;-76
2021/10/19 08:01:58;;;;;;;;;22.00;20.33;;;;;;;;5100365;28;8860;-76
2021/10/19 08:04:23;;;;;;;;;22.00;21.67;;;;;;;;5101759;28;8805;-76
2021/10/19 08:06:49;;;;;;;;;23.33;21.67;;;;;;;;5101691;28;8822;-76
2021/10/19 08:09:14;;;;;;;;;22.33;22.33;;;;;;;;5098846;28;8806;-76
2021/10/19 08:11:39;;;;;;;;;21.67;21.00;;;;;;;;5100368;28;8794;-76
2021/10/19 08:14:04;;;;;;;;;21.67;21.67;;;;;;;;5101903;28;8833;-76
2021/10/19 08:16:30;;;;;;;;;26.00;24.00;;;;;;;;5105789;28;8824;-76
2021/10/19 08:18:55;;;;;;;;;25.00;21.33;;;;;;;;5101933;28;8810;-76
2021/10/19 08:21:20;;;;;;;;;24.33;24.33;;;;;;;;5106072;28;8858;-76
2021/10/19 08:23:46;;;;;;;;;22.33;22.00;;;;;;;;5103259;28;8805;-76
2021/10/19 08:26:11;;;;;;;;;23.67;23.33;;;;;;;;5104987;28;8797;-76
2021/10/19 08:28:39;;;;;;;;;23.33;22.67;;;;;;;;5106278;28;8818;-76
2021/10/19 08:31:06;;;;;;;;;24.75;22.50;;;;;;;;5106391;28;8828;-76
2021/10/19 08:33:32;;;;;;;;;20.75;19.50;;;;;;;;5105062;28;8786;-76
2021/10/19 08:35:57;;;;;;;;;21.33;21.00;;;;;;;;5103687;28;8822;-76
2021/10/19 08:38:23;;;;;;;;;22.33;20.00;;;;;;;;5104785;28;8829;-76
2021/10/19 08:40:48;;;;;;;;;19.67;18.00;;;;;;;;5106226;28;9541;-76
2021/10/19 08:43:14;;;;;;;;;21.67;20.00;;;;;;;;5104557;28;8818;-76
2021/10/19 08:45:39;;;;;;;;;17.75;17.75;;;;;;;;5101792;28;9116;-76
2021/10/19 08:48:07;;;;;;;;;19.00;18.33;;;;;;;;5105785;28;8842;-76
2021/10/19 08:50:33;;;;;;;;;18.00;17.50;;;;;;;;5103653;28;8730;-76
2021/10/19 08:52:58;;;;;;;;;20.00;19.00;;;;;;;;5102641;28;8821;-76
2021/10/19 08:55:23;;;;;;;;;17.00;17.00;;;;;;;;5105092;28;8789;-76
2021/10/19 08:57:48;;;;;;;;;21.00;19.00;;;;;;;;5103742;28;8777;-76
2021/10/19 09:00:14;;;;;;;;;19.00;18.00;;;;;;;;5102788;28;8849;-76
2021/10/19 09:02:43;;;;;;;;;17.33;16.67;;;;;;;;5104230;28;8786;-75
2021/10/19 09:05:15;;;;;;;;;18.25;16.75;;;;;;;;5103433;28;8723;-77
2021/10/19 09:07:50;;;;;;;;;17.25;16.50;;;;;;;;5100763;28;8831;-76
2021/10/19 09:10:16;;;;;;;;;16.50;15.75;;;;;;;;5104536;28;8778;-77
2021/10/19 09:12:51;;;;;;;;;18.00;18.00;;;;;;;;5099405;28;8813;-76
2021/10/19 09:15:19;;;;;;;;;19.25;19.25;;;;;;;;5101523;28;8774;-76
2021/10/19 09:17:44;;;;;;;;;22.50;21.75;;;;;;;;5099443;28;8879;-77
2021/10/19 09:20:16;;;;;;;;;20.00;19.33;;;;;;;;5098673;28;9070;-76
2021/10/19 09:22:54;;;;;;;;;20.50;19.50;;;;;;;;5099618;28;8782;-78
2021/10/19 09:25:23;;;;;;;;;20.25;18.75;;;;;;;;5098618;28;8774;-77
2021/10/19 09:27:48;;;;;;;;;18.00;18.00;;;;;;;;5099908;28;8785;-77
2021/10/19 09:30:13;;;;;;;;;16.33;16.33;;;;;;;;5107363;28;8879;-77
2021/10/19 09:32:49;;;;;;;;;18.00;18.00;;;;;;;;5120757;27;8911;-77
2021/10/19 09:35:19;;;;;;;;;17.00;16.50;;;;;;;;5120057;27;8944;-76
2021/10/19 09:37:54;;;;;;;;;23.25;17.50;;;;;;;;5118962;27;8787;-77
2021/10/19 09:40:28;;;;;;;;;18.25;18.25;;;;;;;;5119544;28;8767;-77
2021/10/19 09:42:58;;;;;;;;;16.75;16.25;;;;;;;;5118237;28;8941;-77
2021/10/19 09:45:24;;;;;;;;;18.75;18.00;;;;;;;;5118863;28;9708;-77
2021/10/19 09:47:50;;;;;;;;;16.25;16.25;;;;;;;;5119243;27;8787;-77
2021/10/19 09:50:16;;;;;;;;;17.25;15.75;;;;;;;;5119522;27;8816;-76
2021/10/19 09:52:43;;;;;;;;;20.00;18.67;;;;;;;;5119954;27;8833;-77
2021/10/19 09:55:12;;;;;;;;;17.25;17.25;;;;;;;;5101219;28;9735;-77
2021/10/19 09:57:38;;;;;;;;;21.00;19.50;;;;;;;;5121715;27;8779;-77
2021/10/19 10:00:05;;;;;;;;;18.75;18.75;;;;;;;;5119256;28;8909;-77
2021/10/19 10:02:31;;;;;;;;;19.50;19.50;;;;;;;;5121484;27;9736;-77
2021/10/19 10:04:56;;;;;;;;;17.50;17.25;;;;;;;;5119057;27;8772;-78
2021/10/19 10:07:22;;;;;;;;;19.67;19.00;;;;;;;;5119852;27;8809;-77
2021/10/19 10:09:48;;;;;;;;;20.33;19.67;;;;;;;;5118995;28;8841;-78
2021/10/19 10:12:13;;;;;;;;;21.67;19.67;;;;;;;;5121002;27;8771;-77
2021/10/19 10:14:42;;;;;;;;;19.33;18.33;;;;;;;;5120134;27;8826;-78
2021/10/19 10:17:10;;;;;;;;;18.33;17.33;;;;;;;;5121239;27;8791;-76
2021/10/19 10:19:35;;;;;;;;;19.00;19.00;;;;;;;;5121217;27;8771;-77
2021/10/19 10:22:03;;;;;;;;;18.00;18.00;;;;;;;;5121124;27;9620;-77
2021/10/19 10:24:29;;;;;;;;;23.50;22.25;;;;;;;;5100585;28;8814;-78
2021/10/19 10:27:07;;;;;;;;;17.75;17.25;;;;;;;;5120519;27;8867;-78
2021/10/19 10:29:50;;;;;;;;;17.75;17.75;;;;;;;;5116907;27;8796;-77
2021/10/19 10:32:36;;;;;;;;;16.75;16.75;;;;;;;;5098816;28;9726;-78
2021/10/19 10:35:09;;;;;;;;;19.25;18.00;;;;;;;;5097178;28;8905;-78
2021/10/19 10:37:40;;;;;;;;;19.25;18.50;;;;;;;;5097483;28;8919;-78
2021/10/19 10:40:07;;;;;;;;;20.50;20.50;;;;;;;;5099397;28;8790;-78
2021/10/19 10:42:36;;;;;;;;;23.00;20.25;;;;;;;;5097662;28;8796;-78
2021/10/19 10:45:02;;;;;;;;;17.25;17.25;;;;;;;;5099318;28;8766;-78
2021/10/19 10:47:28;;;;;;;;;22.33;20.00;;;;;;;;5098285;28;8774;-78
2021/10/19 10:49:53;;;;;;;;;16.33;16.00;;;;;;;;5098218;28;8864;-78
2021/10/19 10:52:19;;;;;;;;;21.00;21.00;;;;;;;;5097814;28;8844;-78
2021/10/19 10:54:53;;;;;;;;;17.00;16.67;;;;;;;;5097595;28;8797;-78
2021/10/19 10:57:18;;;;;;;;;20.75;18.25;;;;;;;;5096452;28;9724;-78
2021/10/19 10:59:50;;;;;;;;;18.00;18.00;;;;;;;;5095484;28;8887;-78
2021/10/19 11:02:15;;;;;;;;;16.00;16.00;;;;;;;;5096567;28;8746;-78
2021/10/19 11:04:47;;;;;;;;;16.00;15.00;;;;;;;;5095482;28;9647;-79
2021/10/19 11:07:13;;;;;;;;;13.50;13.50;;;;;;;;5096769;28;8797;-78
2021/10/19 11:09:38;;;;;;;;;17.00;17.00;;;;;;;;5096021;28;8875;-78
2021/10/19 11:12:05;;;;;;;;;21.00;20.00;;;;;;;;5097139;28;8912;-78
2021/10/19 11:14:31;;;;;;;;;16.75;16.75;;;;;;;;5097347;28;8769;-78
2021/10/19 11:16:56;;;;;;;;;18.00;18.00;;;;;;;;5095389;28;8826;-78
2021/10/19 11:19:29;;;;;;;;;14.33;14.33;;;;;;;;5097016;28;8794;-77
2021/10/19 11:21:54;;;;;;;;;15.25;14.25;;;;;;;;5094954;28;8831;-78
2021/10/19 11:24:20;;;;;;;;;19.33;19.33;;;;;;;;5095270;28;8790;-77
2021/10/19 11:26:45;;;;;;;;;18.50;17.75;;;;;;;;5096958;28;9680;-78
2021/10/19 11:29:11;;;;;;;;;18.33;17.00;;;;;;;;5096666;28;8898;-77
2021/10/19 11:31:38;;;;;;;;;19.00;16.67;;;;;;;;5115422;28;8892;-78
2021/10/19 11:34:04;;;;;;;;;15.75;15.75;;;;;;;;5115068;28;8829;-86
2021/10/19 11:36:29;;;;;;;;;20.75;19.00;;;;;;;;5116116;27;8810;-81
2021/10/19 11:38:55;;;;;;;;;14.00;14.00;;;;;;;;5116287;27;8791;-82
2021/10/19 11:41:25;;;;;;;;;19.75;19.75;;;;;;;;5115231;28;9729;-82
2021/10/19 11:43:51;;;;;;;;;18.25;18.00;;;;;;;;5115219;28;8809;-82
2021/10/19 11:46:18;;;;;;;;;17.50;17.25;;;;;;;;5116561;27;8811;-80
2021/10/19 11:48:46;;;;;;;;;18.00;18.00;;;;;;;;5110205;27;8813;-81
2021/10/19 11:51:12;;;;;;;;;17.50;17.50;;;;;;;;5094463;28;8906;-80
2021/10/19 11:53:38;;;;;;;;;15.00;14.00;;;;;;;;5096154;28;8823;-79
2021/10/19 11:56:05;;;;;;;;;16.50;16.50;;;;;;;;5096104;28;8908;-82
2021/10/19 11:58:30;;;;;;;;;17.00;16.00;;;;;;;;5096175;28;8790;-83
2021/10/19 12:00:56;;;;;;;;;16.67;15.67;;;;;;;;5096068;28;8876;-82
2021/10/19 12:03:28;;;;;;;;;14.50;14.00;;;;;;;;5096733;28;8809;-81
2021/10/19 12:05:53;;;;;;;;;17.25;17.25;;;;;;;;5094518;28;8806;-82
2021/10/19 12:08:19;;;;;;;;;18.00;18.00;;;;;;;;5096166;28;8828;-81
2021/10/19 12:10:48;;;;;;;;;14.00;14.00;;;;;;;;5097830;28;8903;-81
2021/10/19 12:13:17;;;;;;;;;16.00;16.00;;;;;;;;5099174;28;8798;-80
2021/10/19 12:15:43;;;;;;;;;14.50;14.50;;;;;;;;5097907;28;9284;-81
2021/10/19 12:18:14;;;;;;;;;14.00;13.00;;;;;;;;5100617;28;8845;-84
2021/10/19 12:20:39;;;;;;;;;27.25;27.25;;;;;;;;5119807;28;8767;-83
2021/10/19 12:23:06;;;;;;;;;14.00;13.67;;;;;;;;5118014;28;8839;-83
2021/10/19 12:25:34;;;;;;;;;17.00;16.00;;;;;;;;5118073;28;8888;-83
2021/10/19 12:27:59;;;;;;;;;16.50;15.75;;;;;;;;5119395;28;8786;-83
2021/10/19 12:30:24;;;;;;;;;11.33;11.33;;;;;;;;5119528;28;9578;-83
2021/10/19 12:32:53;;;;;;;;;15.67;15.67;;;;;;;;5114394;27;9541;-82
2021/10/19 12:35:18;;;;;;;;;15.00;14.75;;;;;;;;5100336;28;8782;-81
2021/10/19 12:37:43;;;;;;;;;17.00;14.00;;;;;;;;5100871;28;8794;-80
2021/10/19 12:40:12;;;;;;;;;13.67;13.67;;;;;;;;5098593;28;8813;-82
2021/10/19 12:42:37;;;;;;;;;16.75;13.75;;;;;;;;5099699;28;8870;-81
2021/10/19 12:45:02;;;;;;;;;11.00;11.00;;;;;;;;5099410;28;9614;-78
2021/10/19 12:47:28;;;;;;;;;14.00;14.00;;;;;;;;5098613;28;8821;-81
2021/10/19 12:49:53;;;;;;;;;12.33;11.67;;;;;;;;5099053;28;8806;-85
2021/10/19 12:52:18;;;;;;;;;11.00;11.00;;;;;;;;5098427;28;8805;-83
2021/10/19 12:54:44;;;;;;;;;11.00;11.00;;;;;;;;5097446;28;8955;-83
2021/10/19 12:57:10;;;;;;;;;11.33;10.67;;;;;;;;5098674;28;8785;-81
2021/10/19 12:59:35;;;;;;;;;10.00;10.00;;;;;;;;5098744;28;8802;-84
2021/10/19 13:02:01;;;;;;;;;12.00;12.00;;;;;;;;5097333;28;11606;-83
2021/10/19 13:04:26;;;;;;;;;11.25;11.00;;;;;;;;5098707;28;8790;-82
2021/10/19 13:06:52;;;;;;;;;10.33;10.33;;;;;;;;5097121;28;8805;-82
2021/10/19 13:09:17;;;;;;;;;9.33;7.33;;;;;;;;5098544;28;8805;-81
2021/10/19 13:11:43;;;;;;;;;11.00;11.00;;;;;;;;5098624;28;9645;-82
2021/10/19 13:14:09;;;;;;;;;12.25;11.75;;;;;;;;5096740;28;8813;-81
2021/10/19 13:16:34;;;;;;;;;8.33;8.33;;;;;;;;5091696;28;8872;-83
2021/10/19 13:18:59;;;;;;;;;10.00;8.67;;;;;;;;5088540;28;8816;-83
2021/10/19 13:21:24;;;;;;;;;9.00;9.00;;;;;;;;5092611;28;8797;-83
2021/10/19 13:23:50;;;;;;;;;8.00;7.33;;;;;;;;5089666;28;8853;-83
2021/10/19 13:26:15;;;;;;;;;7.33;7.33;;;;;;;;5094255;28;9011;-84
2021/10/19 13:28:41;;;;;;;;;7.00;6.33;;;;;;;;5092993;28;8785;-84
2021/10/19 13:31:06;;;;;;;;;4.67;4.67;;;;;;;;5092950;28;8809;-82
2021/10/19 13:33:31;;;;;;;;;6.00;6.00;;;;;;;;5086780;28;8818;-83
2021/10/19 13:36:02;;;;;;;;;8.25;8.25;;;;;;;;5093461;28;8906;-83
2021/10/19 13:38:28;;;;;;;;;7.40;7.00;;;;;;;;5088497;28;8735;-82
2021/10/19 13:40:53;;;;;;;;;7.00;7.00;;;;;;;;5089674;28;9615;-83
2021/10/19 13:43:18;;;;;;;;;7.75;7.00;;;;;;;;5081632;28;8840;-83
2021/10/19 13:45:46;;;;;;;;;6.00;6.00;;;;;;;;5093212;28;8837;-83
2021/10/19 13:48:11;;;;;;;;;6.00;6.00;;;;;;;;5092025;28;8797;-84
2021/10/19 13:50:37;;;;;;;;;6.00;5.33;;;;;;;;5100173;28;8809;-83
2021/10/19 13:53:03;;;;;;;;;8.33;7.00;;;;;;;;5093871;28;8813;-84
2021/10/19 13:55:29;;;;;;;;;7.50;7.50;;;;;;;;5098536;28;8758;-83
2021/10/19 13:57:54;;;;;;;;;7.50;7.50;;;;;;;;5103859;28;8820;-83
2021/10/19 14:00:19;;;;;;;;;7.50;7.00;;;;;;;;5096677;28;9600;-85
2021/10/19 14:02:45;;;;;;;;;7.67;7.67;;;;;;;;5093523;28;8836;-85
2021/10/19 14:05:10;;;;;;;;;7.00;7.00;;;;;;;;5079039;28;8828;-84
2021/10/19 14:07:36;;;;;;;;;6.67;6.33;;;;;;;;5094566;28;8801;-80
2021/10/19 14:10:01;;;;;;;;;5.50;5.50;;;;;;;;5094046;28;8893;-85
2021/10/19 14:12:27;;;;;;;;;5.00;5.00;;;;;;;;5091132;28;8864;-84
2021/10/19 14:14:52;;;;;;;;;7.00;7.00;;;;;;;;5095398;28;8838;-83
2021/10/19 14:17:22;;;;;;;;;7.00;7.00;;;;;;;;5091773;28;8832;-80
2021/10/19 14:19:50;;;;;;;;;9.50;8.75;;;;;;;;5092143;28;8984;-82
2021/10/19 14:22:16;;;;;;;;;8.00;6.75;;;;;;;;5094783;28;8802;-81
2021/10/19 14:24:41;;;;;;;;;7.75;7.75;;;;;;;;5094350;28;8918;-80